sensor_id;sensor_type;location;lat;lon;timestamp;temperature;humidity
14783;DHT22;7483;50.498;12.138;2022-08-19T00:01:57;20.40;99.90
14783;DHT22;7483;50.498;12.138;2022-08-19T00:04:28;20.40;99.90
14783;DHT22;7483;50.498;12.138;2022-08-19T00:06:59;20.40;99.90
14783;DHT22;7483;50.498;12.138;2022-08-19T00:09:28;20.30;99.90
14783;DHT22;7483;50.498;12.138;2022-08-19T00:11:58;20.40;99.90
14783;DHT22;7483;50.498;12.138;2022-08-19T00:14:28;20.20;99.90
14783;DHT22;7483;50.498;12.138;2022-08-19T00:16:58;20.20;99.90
14783;DHT22;7483;50.498;12.138;2022-08-19T00:19:27;20.20;99.90
14783;DHT22;7483;50.498;12.138;2022-08-19T00:21:55;20.30;99.90
14783;DHT22;7483;50.498;12.138;2022-08-19T00:24:24;20.30;99.90
14783;DHT22;7483;50.498;12.138;2022-08-19T00:26:55;20.20;99.90
14783;DHT22;7483;50.498;12.138;2022-08-19T00:29:45;20.20;99.90
14783;DHT22;7483;50.498;12.138;2022-08-19T00:32:18;20.20;99.90
14783;DHT22;7483;50.498;12.138;2022-08-19T00:34:47;20.30;99.90
14783;DHT22;7483;50.498;12.138;2022-08-19T00:37:15;20.30;99.90
14783;DHT22;7483;50.498;12.138;2022-08-19T00:39:43;20.30;99.90
14783;DHT22;7483;50.498;12.138;2022-08-19T00:42:14;20.30;99.90
14783;DHT22;7483;50.498;12.138;2022-08-19T00:44:42;20.30;99.90
14783;DHT22;7483;50.498;12.138;2022-08-19T00:47:13;20.30;99.90
14783;DHT22;7483;50.498;12.138;2022-08-19T00:49:45;20.30;99.90
14783;DHT22;7483;50.498;12.138;2022-08-19T00:52:20;20.30;99.90
14783;DHT22;7483;50.498;12.138;2022-08-19T00:54:52;20.30;99.90
14783;DHT22;7483;50.498;12.138;2022-08-19T00:57:26;20.30;99.90
14783;DHT22;7483;50.498;12.138;2022-08-19T00:59:59;20.30;99.90
14783;DHT22;7483;50.498;12.138;2022-08-19T01:02:30;20.30;99.90
14783;DHT22;7483;50.498;12.138;2022-08-19T01:05:02;20.30;99.90
14783;DHT22;7483;50.498;12.138;2022-08-19T01:07:34;20.30;99.90
14783;DHT22;7483;50.498;12.138;2022-08-19T01:10:06;20.20;99.90
14783;DHT22;7483;50.498;12.138;2022-08-19T01:12:36;20.20;99.90
14783;DHT22;7483;50.498;12.138;2022-08-19T01:15:09;20.20;99.90
14783;DHT22;7483;50.498;12.138;2022-08-19T01:17:40;20.20;99.90
14783;DHT22;7483;50.498;12.138;2022-08-19T01:20:12;20.10;99.90
14783;DHT22;7483;50.498;12.138;2022-08-19T01:22:45;20.10;99.90
14783;DHT22;7483;50.498;12.138;2022-08-19T01:25:17;20.10;99.90
14783;DHT22;7483;50.498;12.138;2022-08-19T01:27:50;20.10;99.90
14783;DHT22;7483;50.498;12.138;2022-08-19T01:30:23;20.10;99.90
14783;DHT22;7483;50.498;12.138;2022-08-19T01:32:54;20.20;99.90
14783;DHT22;7483;50.498;12.138;2022-08-19T01:35:26;20.30;99.90
14783;DHT22;7483;50.498;12.138;2022-08-19T01:37:59;20.30;99.90
14783;DHT22;7483;50.498;12.138;2022-08-19T01:40:31;20.30;99.90
14783;DHT22;7483;50.498;12.138;2022-08-19T01:43:01;20.30;99.90
14783;DHT22;7483;50.498;12.138;2022-08-19T01:45:32;20.30;99.90
14783;DHT22;7483;50.498;12.138;2022-08-19T01:48:01;20.40;99.90
14783;DHT22;7483;50.498;12.138;2022-08-19T01:50:32;20.40;99.90
14783;DHT22;7483;50.498;12.138;2022-08-19T01:53:06;20.20;99.90
14783;DHT22;7483;50.498;12.138;2022-08-19T01:55:40;20.10;99.90
14783;DHT22;7483;50.498;12.138;2022-08-19T01:58:12;20.00;99.90
14783;DHT22;7483;50.498;12.138;2022-08-19T02:00:45;20.10;99.90
14783;DHT22;7483;50.498;12.138;2022-08-19T02:03:13;20.10;99.90
14783;DHT22;7483;50.498;12.138;2022-08-19T02:05:43;20.20;99.90
14783;DHT22;7483;50.498;12.138;2022-08-19T02:08:13;20.30;99.90
14783;DHT22;7483;50.498;12.138;2022-08-19T02:10:42;20.30;99.90
14783;DHT22;7483;50.498;12.138;2022-08-19T02:13:12;20.30;99.90
14783;DHT22;7483;50.498;12.138;2022-08-19T02:15:43;20.30;99.90
14783;DHT22;7483;50.498;12.138;2022-08-19T02:18:12;20.40;99.90
14783;DHT22;7483;50.498;12.138;2022-08-19T02:20:41;20.40;99.90
14783;DHT22;7483;50.498;12.138;2022-08-19T02:23:14;20.40;99.90
14783;DHT22;7483;50.498;12.138;2022-08-19T02:25:44;20.20;99.90
14783;DHT22;7483;50.498;12.138;2022-08-19T02:28:14;20.20;99.90
14783;DHT22;7483;50.498;12.138;2022-08-19T02:30:46;20.20;99.90
14783;DHT22;7483;50.498;12.138;2022-08-19T02:33:16;20.20;99.90
14783;DHT22;7483;50.498;12.138;2022-08-19T02:35:44;20.20;99.90
14783;DHT22;7483;50.498;12.138;2022-08-19T02:38:14;20.20;99.90
14783;DHT22;7483;50.498;12.138;2022-08-19T02:40:55;20.20;99.90
14783;DHT22;7483;50.498;12.138;2022-08-19T02:43:26;20.20;99.90
14783;DHT22;7483;50.498;12.138;2022-08-19T02:46:01;20.10;99.90
14783;DHT22;7483;50.498;12.138;2022-08-19T02:48:30;20.10;99.90
14783;DHT22;7483;50.498;12.138;2022-08-19T02:50:59;20.10;99.90
14783;DHT22;7483;50.498;12.138;2022-08-19T02:53:28;20.10;99.90
14783;DHT22;7483;50.498;12.138;2022-08-19T02:55:57;20.20;99.90
14783;DHT22;7483;50.498;12.138;2022-08-19T02:58:25;20.20;99.90
14783;DHT22;7483;50.498;12.138;2022-08-19T03:00:55;20.20;99.90
14783;DHT22;7483;50.498;12.138;2022-08-19T03:03:25;20.20;99.90
14783;DHT22;7483;50.498;12.138;2022-08-19T03:06:07;20.30;99.90
14783;DHT22;7483;50.498;12.138;2022-08-19T03:08:40;20.30;99.90
14783;DHT22;7483;50.498;12.138;2022-08-19T03:11:13;20.30;99.90
14783;DHT22;7483;50.498;12.138;2022-08-19T03:13:42;20.30;99.90
14783;DHT22;7483;50.498;12.138;2022-08-19T03:16:11;20.30;99.90
14783;DHT22;7483;50.498;12.138;2022-08-19T03:18:40;20.30;99.90
14783;DHT22;7483;50.498;12.138;2022-08-19T03:21:08;20.30;99.90
14783;DHT22;7483;50.498;12.138;2022-08-19T03:23:39;20.30;99.90
14783;DHT22;7483;50.498;12.138;2022-08-19T03:26:07;20.20;99.90
14783;DHT22;7483;50.498;12.138;2022-08-19T03:28:42;20.00;99.90
14783;DHT22;7483;50.498;12.138;2022-08-19T03:31:24;20.00;99.90
14783;DHT22;7483;50.498;12.138;2022-08-19T03:34:16;20.00;99.90
14783;DHT22;7483;50.498;12.138;2022-08-19T03:36:46;19.90;99.90
14783;DHT22;7483;50.498;12.138;2022-08-19T03:39:16;19.80;99.90
14783;DHT22;7483;50.498;12.138;2022-08-19T03:41:46;19.90;99.90
14783;DHT22;7483;50.498;12.138;2022-08-19T03:44:36;19.90;99.90
14783;DHT22;7483;50.498;12.138;2022-08-19T03:47:05;19.90;99.90
14783;DHT22;7483;50.498;12.138;2022-08-19T03:49:33;19.80;99.90
14783;DHT22;7483;50.498;12.138;2022-08-19T03:52:03;19.90;99.90
14783;DHT22;7483;50.498;12.138;2022-08-19T03:54:35;19.80;99.90
14783;DHT22;7483;50.498;12.138;2022-08-19T03:57:05;19.80;99.90
14783;DHT22;7483;50.498;12.138;2022-08-19T03:59:38;19.70;99.90
14783;DHT22;7483;50.498;12.138;2022-08-19T04:02:09;19.70;99.90
14783;DHT22;7483;50.498;12.138;2022-08-19T04:04:40;19.80;99.90
14783;DHT22;7483;50.498;12.138;2022-08-19T04:07:12;19.70;99.90
14783;DHT22;7483;50.498;12.138;2022-08-19T04:09:44;19.60;99.90
14783;DHT22;7483;50.498;12.138;2022-08-19T04:12:12;19.60;99.90
14783;DHT22;7483;50.498;12.138;2022-08-19T04:14:47;19.60;99.90
14783;DHT22;7483;50.498;12.138;2022-08-19T04:17:15;19.60;99.90
14783;DHT22;7483;50.498;12.138;2022-08-19T04:19:43;19.60;99.90
14783;DHT22;7483;50.498;12.138;2022-08-19T04:22:11;19.70;99.90
14783;DHT22;7483;50.498;12.138;2022-08-19T04:24:39;19.70;99.90
14783;DHT22;7483;50.498;12.138;2022-08-19T04:27:08;19.70;99.90
14783;DHT22;7483;50.498;12.138;2022-08-19T04:29:36;19.70;99.90
14783;DHT22;7483;50.498;12.138;2022-08-19T04:32:06;19.80;99.90
14783;DHT22;7483;50.498;12.138;2022-08-19T04:34:36;19.80;99.90
14783;DHT22;7483;50.498;12.138;2022-08-19T04:37:25;19.80;99.90
14783;DHT22;7483;50.498;12.138;2022-08-19T04:40:02;19.80;99.90
14783;DHT22;7483;50.498;12.138;2022-08-19T04:42:51;19.80;99.90
14783;DHT22;7483;50.498;12.138;2022-08-19T04:45:20;19.90;99.90
14783;DHT22;7483;50.498;12.138;2022-08-19T04:47:49;19.90;99.90
14783;DHT22;7483;50.498;12.138;2022-08-19T04:50:25;20.00;99.90
14783;DHT22;7483;50.498;12.138;2022-08-19T04:52:54;20.00;99.90
14783;DHT22;7483;50.498;12.138;2022-08-19T04:55:23;20.00;99.90
14783;DHT22;7483;50.498;12.138;2022-08-19T04:57:54;20.00;99.90
14783;DHT22;7483;50.498;12.138;2022-08-19T05:00:22;20.00;99.90
14783;DHT22;7483;50.498;12.138;2022-08-19T05:02:51;20.10;99.90
14783;DHT22;7483;50.498;12.138;2022-08-19T05:05:19;20.00;99.90
14783;DHT22;7483;50.498;12.138;2022-08-19T05:07:48;20.10;99.90
14783;DHT22;7483;50.498;12.138;2022-08-19T05:10:16;20.00;99.90
14783;DHT22;7483;50.498;12.138;2022-08-19T05:12:44;20.00;99.90
14783;DHT22;7483;50.498;12.138;2022-08-19T05:15:13;19.90;99.90
14783;DHT22;7483;50.498;12.138;2022-08-19T05:17:41;20.00;99.90
14783;DHT22;7483;50.498;12.138;2022-08-19T05:20:29;19.90;99.90
14783;DHT22;7483;50.498;12.138;2022-08-19T05:23:15;19.90;99.90
14783;DHT22;7483;50.498;12.138;2022-08-19T05:25:48;19.80;99.90
14783;DHT22;7483;50.498;12.138;2022-08-19T05:28:18;19.80;99.90
14783;DHT22;7483;50.498;12.138;2022-08-19T05:30:48;19.80;99.90
14783;DHT22;7483;50.498;12.138;2022-08-19T05:33:18;19.80;99.90
14783;DHT22;7483;50.498;12.138;2022-08-19T05:35:46;19.80;99.90
14783;DHT22;7483;50.498;12.138;2022-08-19T05:38:16;19.80;99.90
14783;DHT22;7483;50.498;12.138;2022-08-19T05:40:45;19.80;99.90
14783;DHT22;7483;50.498;12.138;2022-08-19T05:43:15;19.80;99.90
14783;DHT22;7483;50.498;12.138;2022-08-19T05:45:43;19.90;99.90
14783;DHT22;7483;50.498;12.138;2022-08-19T05:48:13;19.80;99.90
14783;DHT22;7483;50.498;12.138;2022-08-19T05:50:41;19.80;99.90
14783;DHT22;7483;50.498;12.138;2022-08-19T05:53:11;19.80;99.90
14783;DHT22;7483;50.498;12.138;2022-08-19T05:55:40;19.90;99.90
14783;DHT22;7483;50.498;12.138;2022-08-19T05:58:09;19.80;99.90
14783;DHT22;7483;50.498;12.138;2022-08-19T06:00:37;19.80;99.90
14783;DHT22;7483;50.498;12.138;2022-08-19T06:03:06;19.70;99.90
14783;DHT22;7483;50.498;12.138;2022-08-19T06:05:40;19.60;99.90
14783;DHT22;7483;50.498;12.138;2022-08-19T06:08:18;19.60;99.90
14783;DHT22;7483;50.498;12.138;2022-08-19T06:11:13;19.60;99.90
14783;DHT22;7483;50.498;12.138;2022-08-19T06:13:43;19.60;99.90
14783;DHT22;7483;50.498;12.138;2022-08-19T06:16:17;19.60;99.90
14783;DHT22;7483;50.498;12.138;2022-08-19T06:18:50;19.60;99.90
14783;DHT22;7483;50.498;12.138;2022-08-19T06:21:21;19.60;99.90
14783;DHT22;7483;50.498;12.138;2022-08-19T06:23:52;19.60;99.90
14783;DHT22;7483;50.498;12.138;2022-08-19T06:26:21;19.60;99.90
14783;DHT22;7483;50.498;12.138;2022-08-19T06:28:50;19.60;99.90
14783;DHT22;7483;50.498;12.138;2022-08-19T06:31:20;19.60;99.90
14783;DHT22;7483;50.498;12.138;2022-08-19T06:33:49;19.60;99.90
14783;DHT22;7483;50.498;12.138;2022-08-19T06:36:23;19.60;99.90
14783;DHT22;7483;50.498;12.138;2022-08-19T06:38:58;19.60;99.90
14783;DHT22;7483;50.498;12.138;2022-08-19T06:41:27;19.70;99.90
14783;DHT22;7483;50.498;12.138;2022-08-19T06:43:57;19.70;99.90
14783;DHT22;7483;50.498;12.138;2022-08-19T06:46:25;19.70;99.90
14783;DHT22;7483;50.498;12.138;2022-08-19T06:48:54;19.70;99.90
14783;DHT22;7483;50.498;12.138;2022-08-19T06:51:24;19.80;99.90
14783;DHT22;7483;50.498;12.138;2022-08-19T06:53:57;19.80;99.90
14783;DHT22;7483;50.498;12.138;2022-08-19T06:56:27;19.80;99.90
14783;DHT22;7483;50.498;12.138;2022-08-19T06:59:01;19.80;99.90
14783;DHT22;7483;50.498;12.138;2022-08-19T07:01:35;19.80;99.90
14783;DHT22;7483;50.498;12.138;2022-08-19T07:04:05;19.80;99.90
14783;DHT22;7483;50.498;12.138;2022-08-19T07:06:39;19.80;99.90
14783;DHT22;7483;50.498;12.138;2022-08-19T07:09:12;19.90;99.90
14783;DHT22;7483;50.498;12.138;2022-08-19T07:11:45;19.80;99.90
14783;DHT22;7483;50.498;12.138;2022-08-19T07:14:15;19.90;99.90
14783;DHT22;7483;50.498;12.138;2022-08-19T07:16:47;19.90;99.90
14783;DHT22;7483;50.498;12.138;2022-08-19T07:19:18;19.90;99.90
14783;DHT22;7483;50.498;12.138;2022-08-19T07:21:50;19.90;99.90
14783;DHT22;7483;50.498;12.138;2022-08-19T07:24:21;19.90;99.90
14783;DHT22;7483;50.498;12.138;2022-08-19T07:26:52;20.00;99.90
14783;DHT22;7483;50.498;12.138;2022-08-19T07:29:23;20.00;99.90
14783;DHT22;7483;50.498;12.138;2022-08-19T07:31:55;20.00;99.90
14783;DHT22;7483;50.498;12.138;2022-08-19T07:34:28;20.10;99.90
14783;DHT22;7483;50.498;12.138;2022-08-19T07:36:58;20.30;99.90
14783;DHT22;7483;50.498;12.138;2022-08-19T07:39:29;20.30;99.90
14783;DHT22;7483;50.498;12.138;2022-08-19T07:42:03;20.30;99.90
14783;DHT22;7483;50.498;12.138;2022-08-19T07:44:35;20.20;99.90
14783;DHT22;7483;50.498;12.138;2022-08-19T07:47:09;20.30;99.90
14783;DHT22;7483;50.498;12.138;2022-08-19T07:49:58;20.30;99.90
14783;DHT22;7483;50.498;12.138;2022-08-19T07:52:27;20.20;99.90
14783;DHT22;7483;50.498;12.138;2022-08-19T07:54:55;20.10;99.90
14783;DHT22;7483;50.498;12.138;2022-08-19T07:57:23;20.10;99.90
14783;DHT22;7483;50.498;12.138;2022-08-19T07:59:51;20.10;99.90
14783;DHT22;7483;50.498;12.138;2022-08-19T08:02:19;20.10;99.90
14783;DHT22;7483;50.498;12.138;2022-08-19T08:04:47;20.10;99.90
14783;DHT22;7483;50.498;12.138;2022-08-19T08:07:34;20.00;99.90
14783;DHT22;7483;50.498;12.138;2022-08-19T08:10:28;20.00;99.90
14783;DHT22;7483;50.498;12.138;2022-08-19T08:12:57;20.10;99.90
14783;DHT22;7483;50.498;12.138;2022-08-19T08:15:36;20.10;99.90
14783;DHT22;7483;50.498;12.138;2022-08-19T08:18:09;20.00;99.90
14783;DHT22;7483;50.498;12.138;2022-08-19T08:20:40;20.00;99.90
14783;DHT22;7483;50.498;12.138;2022-08-19T08:23:09;19.90;99.90
14783;DHT22;7483;50.498;12.138;2022-08-19T08:25:56;19.90;99.90
14783;DHT22;7483;50.498;12.138;2022-08-19T08:28:26;20.00;99.90
14783;DHT22;7483;50.498;12.138;2022-08-19T08:30:57;19.90;99.90
14783;DHT22;7483;50.498;12.138;2022-08-19T08:33:27;20.00;99.90
14783;DHT22;7483;50.498;12.138;2022-08-19T08:36:00;19.90;99.90
14783;DHT22;7483;50.498;12.138;2022-08-19T08:38:31;19.90;99.90
14783;DHT22;7483;50.498;12.138;2022-08-19T08:41:10;19.90;99.90
14783;DHT22;7483;50.498;12.138;2022-08-19T08:43:51;20.00;99.90
14783;DHT22;7483;50.498;12.138;2022-08-19T08:46:25;20.10;99.90
14783;DHT22;7483;50.498;12.138;2022-08-19T08:49:02;20.20;99.90
14783;DHT22;7483;50.498;12.138;2022-08-19T08:51:39;20.20;99.90
14783;DHT22;7483;50.498;12.138;2022-08-19T08:54:19;20.30;99.90
14783;DHT22;7483;50.498;12.138;2022-08-19T08:56:52;20.30;99.90
14783;DHT22;7483;50.498;12.138;2022-08-19T08:59:26;20.40;99.90
14783;DHT22;7483;50.498;12.138;2022-08-19T09:01:59;20.40;99.90
14783;DHT22;7483;50.498;12.138;2022-08-19T09:04:28;20.50;99.90
14783;DHT22;7483;50.498;12.138;2022-08-19T09:07:09;20.50;99.90
14783;DHT22;7483;50.498;12.138;2022-08-19T09:10:10;20.50;99.90
14783;DHT22;7483;50.498;12.138;2022-08-19T09:13:00;20.50;99.90
14783;DHT22;7483;50.498;12.138;2022-08-19T09:15:42;20.50;99.90
14783;DHT22;7483;50.498;12.138;2022-08-19T09:18:14;20.60;99.90
14783;DHT22;7483;50.498;12.138;2022-08-19T09:20:46;20.60;99.90
14783;DHT22;7483;50.498;12.138;2022-08-19T09:23:15;20.60;99.90
14783;DHT22;7483;50.498;12.138;2022-08-19T09:25:46;20.60;99.90
14783;DHT22;7483;50.498;12.138;2022-08-19T09:28:15;20.70;99.90
14783;DHT22;7483;50.498;12.138;2022-08-19T09:30:53;20.70;99.90
14783;DHT22;7483;50.498;12.138;2022-08-19T09:33:21;20.60;99.90
14783;DHT22;7483;50.498;12.138;2022-08-19T09:35:49;20.60;99.90
14783;DHT22;7483;50.498;12.138;2022-08-19T09:38:19;20.60;99.90
14783;DHT22;7483;50.498;12.138;2022-08-19T09:40:49;20.60;99.90
14783;DHT22;7483;50.498;12.138;2022-08-19T09:43:17;20.50;99.90
14783;DHT22;7483;50.498;12.138;2022-08-19T09:45:59;20.50;99.90
14783;DHT22;7483;50.498;12.138;2022-08-19T09:48:27;20.50;99.90
14783;DHT22;7483;50.498;12.138;2022-08-19T09:51:02;20.50;99.90
14783;DHT22;7483;50.498;12.138;2022-08-19T09:53:31;20.50;99.90
14783;DHT22;7483;50.498;12.138;2022-08-19T09:56:01;20.50;99.90
14783;DHT22;7483;50.498;12.138;2022-08-19T09:58:30;20.50;99.90
14783;DHT22;7483;50.498;12.138;2022-08-19T10:01:00;20.50;99.90
14783;DHT22;7483;50.498;12.138;2022-08-19T10:03:31;20.50;99.90
14783;DHT22;7483;50.498;12.138;2022-08-19T10:06:02;20.50;99.90
14783;DHT22;7483;50.498;12.138;2022-08-19T10:08:43;20.50;99.90
14783;DHT22;7483;50.498;12.138;2022-08-19T10:11:18;20.50;99.90
14783;DHT22;7483;50.498;12.138;2022-08-19T10:14:02;20.50;99.90
14783;DHT22;7483;50.498;12.138;2022-08-19T10:16:32;20.50;99.90
14783;DHT22;7483;50.498;12.138;2022-08-19T10:19:05;20.60;99.90
14783;DHT22;7483;50.498;12.138;2022-08-19T10:21:33;20.60;99.90
14783;DHT22;7483;50.498;12.138;2022-08-19T10:24:04;20.60;99.90
14783;DHT22;7483;50.498;12.138;2022-08-19T10:26:39;20.50;99.90
14783;DHT22;7483;50.498;12.138;2022-08-19T10:29:12;20.50;99.90
14783;DHT22;7483;50.498;12.138;2022-08-19T10:31:59;20.50;99.90
14783;DHT22;7483;50.498;12.138;2022-08-19T10:34:29;20.50;99.90
14783;DHT22;7483;50.498;12.138;2022-08-19T10:36:58;20.50;99.90
14783;DHT22;7483;50.498;12.138;2022-08-19T10:39:28;20.60;99.90
14783;DHT22;7483;50.498;12.138;2022-08-19T10:42:10;20.50;99.90
14783;DHT22;7483;50.498;12.138;2022-08-19T10:44:40;20.50;99.90
14783;DHT22;7483;50.498;12.138;2022-08-19T10:47:09;20.50;99.90
14783;DHT22;7483;50.498;12.138;2022-08-19T10:49:51;20.50;99.90
14783;DHT22;7483;50.498;12.138;2022-08-19T10:52:38;20.50;99.90
14783;DHT22;7483;50.498;12.138;2022-08-19T10:55:18;20.40;99.90
14783;DHT22;7483;50.498;12.138;2022-08-19T10:58:12;20.40;99.90
14783;DHT22;7483;50.498;12.138;2022-08-19T11:00:42;20.40;99.90
14783;DHT22;7483;50.498;12.138;2022-08-19T11:03:18;20.50;99.90
14783;DHT22;7483;50.498;12.138;2022-08-19T11:05:46;20.50;99.90
14783;DHT22;7483;50.498;12.138;2022-08-19T11:08:16;20.50;99.90
14783;DHT22;7483;50.498;12.138;2022-08-19T11:10:50;20.50;99.90
14783;DHT22;7483;50.498;12.138;2022-08-19T11:13:25;20.50;99.90
14783;DHT22;7483;50.498;12.138;2022-08-19T11:15:58;20.50;99.90
14783;DHT22;7483;50.498;12.138;2022-08-19T11:18:35;20.60;99.90
14783;DHT22;7483;50.498;12.138;2022-08-19T11:21:09;20.60;99.90
14783;DHT22;7483;50.498;12.138;2022-08-19T11:23:40;20.50;99.90
14783;DHT22;7483;50.498;12.138;2022-08-19T11:26:08;20.50;99.90
14783;DHT22;7483;50.498;12.138;2022-08-19T11:28:38;20.50;99.90
14783;DHT22;7483;50.498;12.138;2022-08-19T11:31:10;20.50;99.90
14783;DHT22;7483;50.498;12.138;2022-08-19T11:33:39;20.50;99.90
14783;DHT22;7483;50.498;12.138;2022-08-19T11:36:13;20.40;99.90
14783;DHT22;7483;50.498;12.138;2022-08-19T11:38:44;20.40;99.90
14783;DHT22;7483;50.498;12.138;2022-08-19T11:41:16;20.40;99.90
14783;DHT22;7483;50.498;12.138;2022-08-19T11:43:47;20.40;99.90
14783;DHT22;7483;50.498;12.138;2022-08-19T11:46:16;20.30;99.90
14783;DHT22;7483;50.498;12.138;2022-08-19T11:48:44;20.30;99.90
14783;DHT22;7483;50.498;12.138;2022-08-19T11:51:16;20.40;99.90
14783;DHT22;7483;50.498;12.138;2022-08-19T11:53:46;20.40;99.90
14783;DHT22;7483;50.498;12.138;2022-08-19T11:56:17;20.40;99.90
14783;DHT22;7483;50.498;12.138;2022-08-19T11:58:48;20.50;99.90
14783;DHT22;7483;50.498;12.138;2022-08-19T12:01:17;20.50;99.90
14783;DHT22;7483;50.498;12.138;2022-08-19T12:03:48;20.60;99.90
14783;DHT22;7483;50.498;12.138;2022-08-19T12:06:19;20.60;99.90
14783;DHT22;7483;50.498;12.138;2022-08-19T12:08:49;20.70;99.90
14783;DHT22;7483;50.498;12.138;2022-08-19T12:11:18;20.70;99.90
14783;DHT22;7483;50.498;12.138;2022-08-19T12:13:47;20.80;99.90
14783;DHT22;7483;50.498;12.138;2022-08-19T12:16:17;20.70;99.90
14783;DHT22;7483;50.498;12.138;2022-08-19T12:18:47;20.70;99.90
14783;DHT22;7483;50.498;12.138;2022-08-19T12:21:20;20.80;99.90
14783;DHT22;7483;50.498;12.138;2022-08-19T12:23:53;20.80;99.90
14783;DHT22;7483;50.498;12.138;2022-08-19T12:26:23;20.80;99.90
14783;DHT22;7483;50.498;12.138;2022-08-19T12:28:54;20.80;99.90
14783;DHT22;7483;50.498;12.138;2022-08-19T12:31:22;20.80;99.90
14783;DHT22;7483;50.498;12.138;2022-08-19T12:33:50;20.70;99.90
14783;DHT22;7483;50.498;12.138;2022-08-19T12:36:19;20.80;99.90
14783;DHT22;7483;50.498;12.138;2022-08-19T12:38:48;20.70;99.90
14783;DHT22;7483;50.498;12.138;2022-08-19T12:41:18;20.70;99.90
14783;DHT22;7483;50.498;12.138;2022-08-19T12:43:48;20.80;99.90
14783;DHT22;7483;50.498;12.138;2022-08-19T12:46:19;20.70;99.90
14783;DHT22;7483;50.498;12.138;2022-08-19T12:48:51;20.70;99.90
14783;DHT22;7483;50.498;12.138;2022-08-19T12:51:21;20.70;99.90
14783;DHT22;7483;50.498;12.138;2022-08-19T12:53:50;20.70;99.90
14783;DHT22;7483;50.498;12.138;2022-08-19T12:56:18;20.70;99.90
14783;DHT22;7483;50.498;12.138;2022-08-19T12:58:49;20.70;99.90
14783;DHT22;7483;50.498;12.138;2022-08-19T13:01:20;20.60;99.90
14783;DHT22;7483;50.498;12.138;2022-08-19T13:03:49;20.60;99.90
14783;DHT22;7483;50.498;12.138;2022-08-19T13:06:19;20.60;99.90
14783;DHT22;7483;50.498;12.138;2022-08-19T13:08:49;20.60;99.90
14783;DHT22;7483;50.498;12.138;2022-08-19T13:11:22;20.70;99.90
14783;DHT22;7483;50.498;12.138;2022-08-19T13:13:52;20.60;99.90
14783;DHT22;7483;50.498;12.138;2022-08-19T13:16:22;20.60;99.90
14783;DHT22;7483;50.498;12.138;2022-08-19T13:18:51;20.60;99.90
14783;DHT22;7483;50.498;12.138;2022-08-19T13:21:20;20.60;99.90
14783;DHT22;7483;50.498;12.138;2022-08-19T13:23:51;20.60;99.90
14783;DHT22;7483;50.498;12.138;2022-08-19T13:26:20;20.60;99.90
14783;DHT22;7483;50.498;12.138;2022-08-19T13:28:49;20.60;99.90
14783;DHT22;7483;50.498;12.138;2022-08-19T13:31:40;20.60;99.90
14783;DHT22;7483;50.498;12.138;2022-08-19T13:34:29;20.60;99.90
14783;DHT22;7483;50.498;12.138;2022-08-19T13:36:59;20.60;99.90
14783;DHT22;7483;50.498;12.138;2022-08-19T13:39:29;20.60;99.90
14783;DHT22;7483;50.498;12.138;2022-08-19T13:41:59;20.60;99.90
14783;DHT22;7483;50.498;12.138;2022-08-19T13:44:29;20.50;99.90
14783;DHT22;7483;50.498;12.138;2022-08-19T13:47:02;20.50;99.90
14783;DHT22;7483;50.498;12.138;2022-08-19T13:49:35;20.50;99.90
14783;DHT22;7483;50.498;12.138;2022-08-19T13:52:04;20.50;99.90
14783;DHT22;7483;50.498;12.138;2022-08-19T13:54:32;20.50;99.90
14783;DHT22;7483;50.498;12.138;2022-08-19T13:57:00;20.50;99.90
14783;DHT22;7483;50.498;12.138;2022-08-19T13:59:28;20.40;99.90
14783;DHT22;7483;50.498;12.138;2022-08-19T14:01:58;20.50;99.90
14783;DHT22;7483;50.498;12.138;2022-08-19T14:04:28;20.50;99.90
14783;DHT22;7483;50.498;12.138;2022-08-19T14:06:56;20.50;99.90
14783;DHT22;7483;50.498;12.138;2022-08-19T14:09:24;20.50;99.90
14783;DHT22;7483;50.498;12.138;2022-08-19T14:11:52;20.50;99.90
14783;DHT22;7483;50.498;12.138;2022-08-19T14:14:20;20.50;99.90
14783;DHT22;7483;50.498;12.138;2022-08-19T14:16:49;20.50;99.90
14783;DHT22;7483;50.498;12.138;2022-08-19T14:19:18;20.50;99.90
14783;DHT22;7483;50.498;12.138;2022-08-19T14:21:48;20.50;99.90
14783;DHT22;7483;50.498;12.138;2022-08-19T14:24:16;20.50;99.90
14783;DHT22;7483;50.498;12.138;2022-08-19T14:26:44;20.50;99.90
14783;DHT22;7483;50.498;12.138;2022-08-19T14:29:12;20.50;99.90
14783;DHT22;7483;50.498;12.138;2022-08-19T14:31:39;20.50;99.90
14783;DHT22;7483;50.498;12.138;2022-08-19T14:34:09;20.60;99.90
14783;DHT22;7483;50.498;12.138;2022-08-19T14:36:39;20.50;99.90
14783;DHT22;7483;50.498;12.138;2022-08-19T14:39:09;20.50;99.90
14783;DHT22;7483;50.498;12.138;2022-08-19T14:41:40;20.50;99.90
14783;DHT22;7483;50.498;12.138;2022-08-19T14:44:09;20.50;99.90
14783;DHT22;7483;50.498;12.138;2022-08-19T14:46:39;20.60;99.90
14783;DHT22;7483;50.498;12.138;2022-08-19T14:49:15;20.60;99.90
14783;DHT22;7483;50.498;12.138;2022-08-19T14:51:45;20.60;99.90
14783;DHT22;7483;50.498;12.138;2022-08-19T14:54:15;20.60;99.90
14783;DHT22;7483;50.498;12.138;2022-08-19T14:56:43;20.60;99.90
14783;DHT22;7483;50.498;12.138;2022-08-19T14:59:11;20.60;99.90
14783;DHT22;7483;50.498;12.138;2022-08-19T15:01:39;20.50;99.90
14783;DHT22;7483;50.498;12.138;2022-08-19T15:04:07;20.60;99.90
14783;DHT22;7483;50.498;12.138;2022-08-19T15:06:36;20.50;99.90
14783;DHT22;7483;50.498;12.138;2022-08-19T15:09:04;20.50;99.90
14783;DHT22;7483;50.498;12.138;2022-08-19T15:11:35;20.60;99.90
14783;DHT22;7483;50.498;12.138;2022-08-19T15:14:05;20.60;99.90
14783;DHT22;7483;50.498;12.138;2022-08-19T15:16:33;20.60;99.90
14783;DHT22;7483;50.498;12.138;2022-08-19T15:19:01;20.70;99.90
14783;DHT22;7483;50.498;12.138;2022-08-19T15:21:29;20.70;99.90
14783;DHT22;7483;50.498;12.138;2022-08-19T15:23:58;20.70;99.90
14783;DHT22;7483;50.498;12.138;2022-08-19T15:26:28;20.60;99.90
14783;DHT22;7483;50.498;12.138;2022-08-19T15:29:00;20.60;99.90
14783;DHT22;7483;50.498;12.138;2022-08-19T15:31:29;20.60;99.90
14783;DHT22;7483;50.498;12.138;2022-08-19T15:34:03;20.60;99.90
14783;DHT22;7483;50.498;12.138;2022-08-19T15:36:32;20.60;99.90
14783;DHT22;7483;50.498;12.138;2022-08-19T15:39:00;20.60;99.90
14783;DHT22;7483;50.498;12.138;2022-08-19T15:41:30;20.60;99.90
14783;DHT22;7483;50.498;12.138;2022-08-19T15:44:03;20.60;99.90
14783;DHT22;7483;50.498;12.138;2022-08-19T15:46:36;20.50;99.90
14783;DHT22;7483;50.498;12.138;2022-08-19T15:49:06;20.50;99.90
14783;DHT22;7483;50.498;12.138;2022-08-19T15:51:38;20.50;99.90
14783;DHT22;7483;50.498;12.138;2022-08-19T15:54:10;20.50;99.90
14783;DHT22;7483;50.498;12.138;2022-08-19T15:56:40;20.50;99.90
14783;DHT22;7483;50.498;12.138;2022-08-19T15:59:26;20.50;99.90